createdAt,value
2018-06-30T00:00:19.925Z,2.43
2018-06-30T00:03:08.784Z,2.80
2018-06-30T00:05:43.206Z,2.30
2018-06-30T00:08:25.921Z,2.63
2018-06-30T00:13:54.019Z,2.53
2018-06-30T00:16:32.957Z,2.50
2018-06-30T00:19:18.621Z,2.03
2018-06-30T00:21:53.763Z,2.37
2018-06-30T00:24:39.857Z,2.07
2018-06-30T00:27:24.286Z,2.03
2018-06-30T00:30:05.606Z,2.03
2018-06-30T00:32:43.538Z,2.20
2018-06-30T00:35:19.045Z,2.30
2018-06-30T00:37:53.643Z,1.80
2018-06-30T00:40:31.061Z,1.50
2018-06-30T00:43:05.276Z,1.63
2018-06-30T00:45:44.957Z,1.50
2018-06-30T00:48:18.438Z,1.50
2018-06-30T00:50:52.123Z,1.50
2018-06-30T00:53:28.285Z,1.40
2018-06-30T00:56:02.818Z,1.40
2018-06-30T00:58:44.533Z,1.73
2018-06-30T01:01:22.812Z,1.50
2018-06-30T01:03:58.564Z,1.40
2018-06-30T01:06:41.557Z,1.37
2018-06-30T01:09:19.796Z,1.33
2018-06-30T01:11:57.289Z,1.33
2018-06-30T01:14:38.328Z,1.13
2018-06-30T01:17:10.299Z,1.10
2018-06-30T01:19:48.026Z,1.10
2018-06-30T01:22:25.848Z,1.43
2018-06-30T01:25:08.035Z,1.40
2018-06-30T01:27:42.348Z,1.07
2018-06-30T01:30:14.560Z,1.10
2018-06-30T01:35:45.558Z,0.90
2018-06-30T01:38:14.052Z,1.77
2018-06-30T01:40:42.664Z,1.00
2018-06-30T01:43:11.241Z,1.40
2018-06-30T01:45:40.702Z,1.20
2018-06-30T01:48:09.253Z,1.33
2018-06-30T01:50:37.917Z,1.13
2018-06-30T01:53:06.450Z,1.13
2018-06-30T01:55:34.946Z,1.10
2018-06-30T01:58:03.469Z,1.00
2018-06-30T02:00:32.036Z,0.80
2018-06-30T02:03:01.697Z,1.10
2018-06-30T02:05:30.208Z,0.80
2018-06-30T02:07:58.638Z,1.10
2018-06-30T02:10:27.177Z,1.00
2018-06-30T02:12:55.645Z,0.90
2018-06-30T02:15:24.064Z,0.67
2018-06-30T02:17:52.705Z,0.80
2018-06-30T02:20:21.182Z,0.83
2018-06-30T02:22:49.837Z,1.00
2018-06-30T02:25:18.501Z,0.90
2018-06-30T02:27:47.384Z,0.80
2018-06-30T02:30:15.814Z,0.90
2018-06-30T02:32:44.328Z,0.80
2018-06-30T02:35:12.870Z,0.93
2018-06-30T02:37:41.488Z,0.80
2018-06-30T02:40:10.066Z,0.70
2018-06-30T02:42:38.662Z,0.80
2018-06-30T02:45:07.185Z,0.60
2018-06-30T02:47:35.725Z,0.63
2018-06-30T02:50:04.652Z,0.80
2018-06-30T02:52:33.288Z,0.70
2018-06-30T02:55:02.296Z,0.53
2018-06-30T02:57:30.848Z,0.90
2018-06-30T02:59:59.374Z,0.60
2018-06-30T03:02:28.005Z,0.70
2018-06-30T03:04:56.556Z,0.83
2018-06-30T03:07:25.216Z,0.73
2018-06-30T03:09:53.689Z,0.90
2018-06-30T03:12:22.226Z,0.83
2018-06-30T03:14:50.812Z,0.80
2018-06-30T03:17:19.232Z,0.80
2018-06-30T03:19:47.605Z,0.80
2018-06-30T03:22:16.113Z,0.80
2018-06-30T03:24:44.521Z,1.07
2018-06-30T03:27:13.008Z,1.10
2018-06-30T03:29:42.954Z,0.80
2018-06-30T03:32:11.433Z,1.60
2018-06-30T03:34:40.082Z,1.13
2018-06-30T03:37:08.669Z,1.00
2018-06-30T03:39:36.976Z,1.20
2018-06-30T03:42:05.410Z,1.30
2018-06-30T03:44:33.714Z,1.37
2018-06-30T03:47:02.104Z,1.20
2018-06-30T03:49:30.729Z,1.80
2018-06-30T03:51:59.208Z,1.80
2018-06-30T03:54:27.645Z,1.40
2018-06-30T03:56:56.235Z,1.77
2018-06-30T03:59:24.742Z,1.93
2018-06-30T04:01:53.702Z,2.00
2018-06-30T04:04:22.276Z,2.00
2018-06-30T04:06:51.591Z,2.10
2018-06-30T04:09:20.070Z,2.30
2018-06-30T04:11:48.659Z,1.73
2018-06-30T04:14:17.109Z,1.90
2018-06-30T04:16:45.909Z,1.63
2018-06-30T04:19:18.282Z,2.53
2018-06-30T04:21:47.777Z,3.37
2018-06-30T04:24:16.293Z,2.60
2018-06-30T04:26:45.000Z,3.20
2018-06-30T04:29:14.393Z,2.93
2018-06-30T04:31:42.516Z,2.47
2018-06-30T04:34:10.980Z,2.70
2018-06-30T04:36:39.498Z,2.27
2018-06-30T04:39:09.445Z,3.03
2018-06-30T04:41:37.944Z,2.90
2018-06-30T04:44:06.658Z,2.27
2018-06-30T04:46:35.248Z,3.17
2018-06-30T04:49:03.760Z,2.40
2018-06-30T04:51:32.336Z,2.70
2018-06-30T04:54:00.788Z,3.57
2018-06-30T04:56:29.225Z,2.60
2018-06-30T04:58:57.830Z,2.80
2018-06-30T05:01:26.754Z,2.70
2018-06-30T05:03:55.379Z,2.73
2018-06-30T05:06:23.797Z,2.37
2018-06-30T05:08:52.294Z,2.60
2018-06-30T05:11:20.838Z,2.90
2018-06-30T05:13:49.389Z,2.57
2018-06-30T05:16:17.836Z,2.50
2018-06-30T05:18:46.289Z,2.27
2018-06-30T05:21:14.747Z,2.10
2018-06-30T05:23:43.360Z,1.80
2018-06-30T05:26:12.069Z,1.93
2018-06-30T05:28:40.606Z,1.37
2018-06-30T05:31:09.074Z,1.50
2018-06-30T05:33:37.665Z,1.27
2018-06-30T05:36:06.147Z,1.10
2018-06-30T05:38:34.571Z,1.40
2018-06-30T05:41:02.588Z,1.10
2018-06-30T05:43:30.778Z,1.00
2018-06-30T05:45:58.977Z,1.30
2018-06-30T05:48:27.286Z,0.90
2018-06-30T05:50:55.781Z,1.20
2018-06-30T05:53:24.301Z,1.00
2018-06-30T05:55:52.708Z,1.10
2018-06-30T05:58:21.044Z,0.97
2018-06-30T06:00:49.740Z,1.10
2018-06-30T06:03:18.293Z,1.00
2018-06-30T06:05:46.799Z,0.80
2018-06-30T06:08:15.862Z,0.77
2018-06-30T06:10:44.265Z,0.90
2018-06-30T06:13:14.341Z,0.90
2018-06-30T06:15:44.692Z,0.70
2018-06-30T06:18:13.147Z,0.73
2018-06-30T06:20:41.747Z,0.80
2018-06-30T06:23:10.275Z,0.90
2018-06-30T06:25:38.819Z,0.73
2018-06-30T06:28:07.811Z,0.87
2018-06-30T06:30:37.449Z,0.90
2018-06-30T06:33:05.938Z,0.97
2018-06-30T06:35:34.421Z,0.90
2018-06-30T06:38:02.901Z,0.60
2018-06-30T06:40:31.363Z,0.80
2018-06-30T06:43:00.034Z,0.70
2018-06-30T06:45:28.630Z,0.85
2018-06-30T06:47:57.113Z,0.87
2018-06-30T06:50:25.707Z,0.70
2018-06-30T06:52:54.188Z,0.70
2018-06-30T06:55:22.786Z,0.80
2018-06-30T06:57:51.276Z,0.60
2018-06-30T07:00:19.752Z,0.70
2018-06-30T07:02:48.230Z,0.50
2018-06-30T07:05:16.919Z,0.80
2018-06-30T07:07:47.359Z,0.60
2018-06-30T07:10:16.017Z,0.72
2018-06-30T07:12:44.978Z,0.53
2018-06-30T07:15:13.795Z,0.75
2018-06-30T07:17:42.388Z,0.60
2018-06-30T07:20:10.890Z,0.50
2018-06-30T07:22:44.646Z,0.60
2018-06-30T07:25:13.242Z,0.50
2018-06-30T07:27:41.928Z,0.75
2018-06-30T07:30:10.621Z,0.68
2018-06-30T07:32:40.430Z,0.50
2018-06-30T07:35:09.101Z,0.57
2018-06-30T07:37:37.573Z,0.65
2018-06-30T07:40:06.336Z,0.60
2018-06-30T07:42:35.035Z,0.60
2018-06-30T07:45:07.018Z,0.60
2018-06-30T07:47:35.777Z,0.50
2018-06-30T07:50:04.445Z,0.70
2018-06-30T07:52:32.930Z,0.50
2018-06-30T07:55:01.818Z,0.72
2018-06-30T07:57:30.450Z,0.53
2018-06-30T07:59:58.892Z,0.75
2018-06-30T08:02:27.286Z,0.60
2018-06-30T08:04:55.730Z,0.68
2018-06-30T08:07:24.364Z,0.40
2018-06-30T08:09:52.835Z,0.40
2018-06-30T08:12:21.561Z,0.30
2018-06-30T08:14:50.002Z,0.75
2018-06-30T08:17:18.442Z,0.47
2018-06-30T08:19:46.831Z,0.30
2018-06-30T08:22:15.245Z,0.40
2018-06-30T08:24:43.633Z,0.50
2018-06-30T08:27:12.036Z,0.60
2018-06-30T08:29:40.684Z,0.55
2018-06-30T08:32:09.196Z,0.40
2018-06-30T08:34:37.618Z,0.53
2018-06-30T08:37:06.142Z,0.55
2018-06-30T08:39:34.474Z,0.45
2018-06-30T08:42:03.119Z,0.47
2018-06-30T08:44:31.453Z,0.35
2018-06-30T08:46:59.386Z,0.50
2018-06-30T08:49:27.555Z,0.45
2018-06-30T08:52:07.851Z,0.45
2018-06-30T08:54:36.304Z,0.40
2018-06-30T08:57:04.718Z,0.35
2018-06-30T08:59:33.173Z,0.50
2018-06-30T09:02:01.600Z,0.42
2018-06-30T09:04:30.136Z,0.45
2018-06-30T09:06:58.613Z,0.50
2018-06-30T09:09:27.016Z,0.35
2018-06-30T09:11:55.493Z,0.60
2018-06-30T09:14:24.029Z,0.42
2018-06-30T09:16:52.490Z,0.47
2018-06-30T09:19:20.932Z,0.40
2018-06-30T09:21:49.361Z,0.50
2018-06-30T09:24:17.994Z,0.50
2018-06-30T09:26:46.465Z,0.50
2018-06-30T09:29:14.969Z,0.50
2018-06-30T09:31:43.413Z,0.50
2018-06-30T09:34:11.853Z,0.42
2018-06-30T09:36:40.360Z,0.50
2018-06-30T09:39:10.329Z,0.50
2018-06-30T09:41:38.759Z,0.50
2018-06-30T09:44:07.817Z,0.60
2018-06-30T09:46:36.385Z,0.53
2018-06-30T09:49:05.100Z,0.60
2018-06-30T09:51:33.692Z,0.47
2018-06-30T09:54:02.141Z,0.80
2018-06-30T09:56:30.716Z,0.50
2018-06-30T09:58:59.245Z,0.50
2018-06-30T10:01:27.747Z,0.50
2018-06-30T10:03:56.259Z,0.60
2018-06-30T10:06:25.809Z,0.50
2018-06-30T10:08:54.364Z,0.55
2018-06-30T10:11:22.774Z,0.40
2018-06-30T10:13:51.176Z,0.50
2018-06-30T10:16:19.624Z,0.50
2018-06-30T10:18:48.512Z,0.30
2018-06-30T10:21:16.877Z,0.65
2018-06-30T10:23:45.279Z,0.60
2018-06-30T10:26:13.668Z,0.60
2018-06-30T10:28:42.125Z,0.50
2018-06-30T10:31:10.523Z,0.55
2018-06-30T10:33:39.013Z,0.60
2018-06-30T10:36:07.604Z,0.60
2018-06-30T10:38:36.095Z,0.42
2018-06-30T10:41:04.730Z,0.60
2018-06-30T10:43:33.188Z,0.78
2018-06-30T10:46:01.789Z,0.33
2018-06-30T10:48:30.164Z,0.60
2018-06-30T10:50:58.629Z,0.57
2018-06-30T10:53:27.156Z,0.50
2018-06-30T10:55:55.579Z,0.50
2018-06-30T10:58:24.373Z,0.50
2018-06-30T11:00:52.776Z,0.40
2018-06-30T11:03:21.180Z,0.50
2018-06-30T11:05:52.770Z,0.60
2018-06-30T11:08:21.768Z,0.40
2018-06-30T11:10:50.432Z,0.53
2018-06-30T11:13:18.998Z,0.40
2018-06-30T11:15:56.312Z,0.50
2018-06-30T11:18:24.721Z,0.50
2018-06-30T11:20:53.256Z,0.55
2018-06-30T11:23:21.641Z,0.62
2018-06-30T11:25:50.104Z,0.70
2018-06-30T11:28:18.544Z,0.40
2018-06-30T11:30:46.985Z,0.60
2018-06-30T11:33:15.360Z,0.60
2018-06-30T11:35:43.900Z,0.45
2018-06-30T11:38:12.348Z,0.57
2018-06-30T11:40:40.811Z,0.68
2018-06-30T11:43:09.269Z,0.60
2018-06-30T11:45:37.685Z,0.60
2018-06-30T11:48:06.113Z,0.50
2018-06-30T11:50:34.561Z,0.70
2018-06-30T11:53:02.628Z,0.60
2018-06-30T11:55:30.957Z,0.53
2018-06-30T11:57:59.351Z,0.70
2018-06-30T12:00:27.892Z,0.53
2018-06-30T12:02:56.537Z,0.60
2018-06-30T12:05:25.595Z,0.60
2018-06-30T12:07:54.045Z,0.50
2018-06-30T12:10:26.097Z,0.40
2018-06-30T12:12:54.570Z,0.50
2018-06-30T12:15:23.035Z,0.40
2018-06-30T12:17:52.069Z,0.50
2018-06-30T12:20:20.486Z,0.60
2018-06-30T12:22:49.062Z,0.50
2018-06-30T12:25:17.817Z,0.50
2018-06-30T12:27:46.255Z,0.55
2018-06-30T12:30:14.729Z,0.60
2018-06-30T12:32:43.308Z,0.65
2018-06-30T12:35:11.875Z,0.53
2018-06-30T12:37:40.300Z,0.70
2018-06-30T12:40:08.729Z,0.70
2018-06-30T12:42:37.746Z,0.60
2018-06-30T12:45:06.321Z,0.60
2018-06-30T12:47:34.900Z,0.70
2018-06-30T12:50:03.337Z,0.75
2018-06-30T12:52:31.821Z,0.60
2018-06-30T12:55:00.484Z,0.60
2018-06-30T12:57:28.907Z,0.60
2018-06-30T12:59:57.313Z,0.50
2018-06-30T13:02:27.060Z,0.40
2018-06-30T13:04:55.680Z,0.70
2018-06-30T13:07:24.321Z,0.55
2018-06-30T13:09:52.952Z,0.60
2018-06-30T13:12:21.452Z,0.75
2018-06-30T13:14:55.084Z,0.50
2018-06-30T13:17:23.564Z,0.60
2018-06-30T13:19:52.060Z,0.72
2018-06-30T13:22:20.532Z,0.50
2018-06-30T13:24:49.052Z,0.45
2018-06-30T13:27:17.789Z,0.60
2018-06-30T13:29:46.184Z,0.55
2018-06-30T13:32:14.636Z,0.50
2018-06-30T13:34:46.672Z,0.50
2018-06-30T13:37:15.209Z,0.50
2018-06-30T13:42:48.928Z,0.40
2018-06-30T13:45:17.536Z,1.02
2018-06-30T13:47:45.973Z,0.47
2018-06-30T13:50:14.435Z,0.55
2018-06-30T13:52:42.969Z,0.55
2018-06-30T13:55:11.397Z,0.50
2018-06-30T13:57:39.844Z,0.60
2018-06-30T14:00:11.812Z,0.60
2018-06-30T14:02:40.583Z,0.50
2018-06-30T14:05:09.496Z,0.50
2018-06-30T14:07:38.060Z,0.50
2018-06-30T14:10:07.152Z,0.60
2018-06-30T14:12:35.637Z,0.70
2018-06-30T14:15:05.769Z,0.70
2018-06-30T14:17:34.368Z,0.65
2018-06-30T14:20:02.957Z,0.72
2018-06-30T14:22:31.334Z,0.60
2018-06-30T14:24:59.761Z,0.60
2018-06-30T14:27:28.226Z,0.65
2018-06-30T14:29:59.735Z,0.50
2018-06-30T14:32:29.176Z,0.50
2018-06-30T14:34:57.804Z,0.80
2018-06-30T14:37:26.289Z,0.40
2018-06-30T14:39:54.743Z,0.70
2018-06-30T14:42:23.224Z,0.50
2018-06-30T14:44:51.758Z,0.60
2018-06-30T14:47:20.341Z,0.68
2018-06-30T14:49:48.749Z,0.90
2018-06-30T14:52:17.222Z,0.65
2018-06-30T14:54:45.645Z,0.70
2018-06-30T14:57:14.112Z,0.53
2018-06-30T14:59:42.608Z,0.65
2018-06-30T15:02:11.484Z,0.60
2018-06-30T15:04:40.049Z,0.88
2018-06-30T15:07:08.509Z,0.60
2018-06-30T15:09:36.964Z,0.70
2018-06-30T15:12:05.370Z,0.72
2018-06-30T15:14:33.879Z,0.75
2018-06-30T15:17:02.424Z,0.68
2018-06-30T15:19:30.906Z,0.70
2018-06-30T15:21:59.344Z,1.30
2018-06-30T15:24:27.840Z,0.90
2018-06-30T15:26:56.262Z,1.35
2018-06-30T15:29:24.705Z,1.30
2018-06-30T15:31:53.263Z,1.32
2018-06-30T15:34:21.840Z,1.00
2018-06-30T15:36:50.408Z,0.85
2018-06-30T15:39:18.844Z,0.75
2018-06-30T15:41:47.186Z,0.85
2018-06-30T15:44:15.812Z,0.80
2018-06-30T15:46:44.339Z,0.50
2018-06-30T15:49:12.832Z,0.80
2018-06-30T15:51:41.268Z,0.78
2018-06-30T15:54:09.794Z,0.80
2018-06-30T15:56:40.361Z,0.82
2018-06-30T15:59:08.982Z,0.80
2018-06-30T16:01:37.576Z,0.70
2018-06-30T16:04:06.257Z,0.70
2018-06-30T16:06:34.758Z,0.72
2018-06-30T16:09:03.461Z,0.50
2018-06-30T16:11:31.896Z,0.80
2018-06-30T16:14:00.215Z,0.60
2018-06-30T16:16:28.497Z,0.70
2018-06-30T16:18:56.779Z,0.93
2018-06-30T16:21:24.703Z,0.62
2018-06-30T16:23:52.882Z,0.68
2018-06-30T16:26:21.388Z,0.60
2018-06-30T16:28:49.896Z,0.60
2018-06-30T16:31:18.291Z,0.85
2018-06-30T16:33:46.691Z,0.70
2018-06-30T16:36:15.181Z,0.62
2018-06-30T16:38:43.528Z,1.15
2018-06-30T16:41:11.984Z,1.70
2018-06-30T16:43:40.980Z,1.22
2018-06-30T16:46:09.401Z,1.20
2018-06-30T16:48:37.908Z,1.72
2018-06-30T16:51:06.202Z,1.30
2018-06-30T16:53:34.463Z,1.30
2018-06-30T16:56:02.960Z,2.47
2018-06-30T16:58:31.431Z,1.75
2018-06-30T17:01:00.132Z,1.47
2018-06-30T17:03:29.531Z,1.30
2018-06-30T17:05:58.135Z,1.50
2018-06-30T17:08:26.637Z,1.00
2018-06-30T17:10:55.968Z,0.93
2018-06-30T17:13:24.405Z,1.57
2018-06-30T17:15:52.853Z,1.25
2018-06-30T17:18:21.300Z,1.20
2018-06-30T17:20:49.734Z,1.37
2018-06-30T17:23:18.280Z,1.60
2018-06-30T17:25:46.691Z,1.50
2018-06-30T17:28:15.106Z,1.27
2018-06-30T17:30:43.514Z,1.30
2018-06-30T17:33:12.023Z,1.10
2018-06-30T17:35:40.419Z,1.12
2018-06-30T17:38:08.781Z,0.90
2018-06-30T17:40:37.208Z,0.90
2018-06-30T17:43:05.952Z,0.90
2018-06-30T17:45:34.409Z,0.82
2018-06-30T17:48:03.025Z,0.68
2018-06-30T17:50:31.476Z,1.07
2018-06-30T17:52:59.889Z,0.80
2018-06-30T17:55:28.292Z,1.00
2018-06-30T17:57:56.741Z,1.20
2018-06-30T18:00:25.263Z,1.10
2018-06-30T18:02:57.828Z,0.90
2018-06-30T18:05:28.299Z,1.10
2018-06-30T18:07:56.540Z,1.02
2018-06-30T18:10:25.231Z,0.80
2018-06-30T18:12:53.826Z,0.90
2018-06-30T18:15:22.246Z,0.80
2018-06-30T18:17:50.722Z,0.80
2018-06-30T18:20:20.257Z,0.78
2018-06-30T18:22:50.046Z,0.70
2018-06-30T18:25:18.625Z,0.50
2018-06-30T18:27:47.272Z,0.60
2018-06-30T18:30:15.913Z,0.60
2018-06-30T18:32:44.400Z,0.70
2018-06-30T18:35:19.773Z,0.78
2018-06-30T18:37:48.265Z,0.60
2018-06-30T18:40:16.706Z,0.60
2018-06-30T18:42:45.140Z,0.60
2018-06-30T18:45:13.613Z,0.70
2018-06-30T18:47:42.093Z,0.60
2018-06-30T18:50:10.701Z,1.60
2018-06-30T18:52:39.261Z,0.62
2018-06-30T18:55:07.693Z,0.65
2018-06-30T18:57:37.319Z,0.80
2018-06-30T19:00:07.225Z,0.70
2018-06-30T19:02:36.013Z,0.70
2018-06-30T19:05:04.817Z,1.00
2018-06-30T19:07:33.464Z,0.70
2018-06-30T19:10:01.925Z,0.82
2018-06-30T19:12:31.469Z,0.80
2018-06-30T19:15:00.225Z,1.22
2018-06-30T19:17:28.878Z,1.02
2018-06-30T19:19:57.260Z,0.68
2018-06-30T19:22:25.808Z,0.80
2018-06-30T19:24:54.336Z,0.70
2018-06-30T19:27:22.788Z,0.80
2018-06-30T19:29:51.285Z,0.80
2018-06-30T19:32:19.749Z,0.60
2018-06-30T19:34:48.393Z,0.80
2018-06-30T19:37:16.893Z,0.80
2018-06-30T19:39:45.285Z,0.90
2018-06-30T19:42:13.913Z,0.70
2018-06-30T19:44:43.375Z,0.88
2018-06-30T19:47:11.916Z,0.80
2018-06-30T19:49:40.437Z,0.80
2018-06-30T19:52:08.912Z,0.80
2018-06-30T19:54:37.431Z,0.73
2018-06-30T19:57:06.177Z,0.60
2018-06-30T19:59:34.644Z,0.80
2018-06-30T20:02:03.176Z,0.73
2018-06-30T20:04:31.602Z,0.70
2018-06-30T20:07:00.229Z,0.70
2018-06-30T20:09:28.697Z,0.80
2018-06-30T20:11:57.338Z,0.80
2018-06-30T20:14:27.856Z,0.70
2018-06-30T20:16:56.240Z,0.70
2018-06-30T20:19:24.710Z,0.70
2018-06-30T20:21:53.185Z,0.80
2018-06-30T20:24:21.612Z,0.70
2018-06-30T20:26:50.441Z,0.80
2018-06-30T20:29:19.072Z,1.00
2018-06-30T20:31:47.635Z,0.80
2018-06-30T20:34:16.086Z,0.90
2018-06-30T20:36:50.441Z,0.80
2018-06-30T20:39:18.714Z,1.00
2018-06-30T20:41:47.010Z,0.80
2018-06-30T20:44:18.800Z,0.80
2018-06-30T20:46:47.400Z,0.70
2018-06-30T20:49:15.796Z,0.80
2018-06-30T20:51:44.217Z,0.90
2018-06-30T20:54:12.718Z,1.40
2018-06-30T20:56:41.519Z,1.30
2018-06-30T20:59:10.087Z,1.43
2018-06-30T21:01:38.676Z,1.30
2018-06-30T21:04:07.100Z,1.23
2018-06-30T21:06:35.496Z,1.30
2018-06-30T21:09:06.133Z,1.53
2018-06-30T21:11:34.537Z,1.37
2018-06-30T21:14:03.106Z,1.50
2018-06-30T21:16:31.524Z,1.80
2018-06-30T21:19:00.062Z,1.93
2018-06-30T21:21:28.689Z,1.90
2018-06-30T21:23:57.209Z,2.10
2018-06-30T21:26:25.823Z,2.00
2018-06-30T21:28:54.331Z,1.90
2018-06-30T21:31:22.761Z,1.57
2018-06-30T21:33:51.264Z,2.20
2018-06-30T21:36:19.780Z,1.97
2018-06-30T21:38:48.297Z,1.70
2018-06-30T21:41:16.237Z,2.03
2018-06-30T21:43:44.458Z,1.60
2018-06-30T21:46:12.824Z,2.13
2018-06-30T21:48:41.220Z,1.90
2018-06-30T21:51:09.973Z,1.50
2018-06-30T21:53:38.388Z,1.80
2018-06-30T21:56:07.073Z,2.13
2018-06-30T21:58:38.581Z,1.60
2018-06-30T22:01:12.205Z,1.40
2018-06-30T22:03:40.604Z,1.60
2018-06-30T22:06:09.070Z,1.50
2018-06-30T22:08:37.609Z,1.57
2018-06-30T22:11:06.165Z,1.50
2018-06-30T22:13:34.730Z,1.10
2018-06-30T22:16:03.381Z,1.40
2018-06-30T22:18:31.969Z,1.53
2018-06-30T22:21:00.518Z,1.30
2018-06-30T22:23:28.868Z,1.20
2018-06-30T22:25:57.457Z,1.40
2018-06-30T22:28:25.837Z,1.00
2018-06-30T22:30:54.273Z,1.60
2018-06-30T22:33:22.768Z,1.33
2018-06-30T22:35:51.223Z,1.30
2018-06-30T22:38:19.611Z,1.50
2018-06-30T22:40:48.164Z,1.13
2018-06-30T22:43:16.751Z,1.10
2018-06-30T22:45:45.268Z,1.20
2018-06-30T22:48:13.664Z,1.37
2018-06-30T22:50:42.220Z,1.20
2018-06-30T22:53:10.751Z,1.30
2018-06-30T22:55:39.210Z,1.03
2018-06-30T22:58:07.717Z,1.10
2018-06-30T23:00:36.297Z,1.10
2018-06-30T23:03:09.981Z,1.17
2018-06-30T23:05:39.072Z,1.00
2018-06-30T23:08:07.556Z,1.07
2018-06-30T23:10:35.892Z,1.10
2018-06-30T23:13:04.606Z,1.30
2018-06-30T23:15:32.945Z,1.30
2018-06-30T23:18:01.485Z,1.40
2018-06-30T23:20:30.436Z,1.07
2018-06-30T23:23:01.393Z,1.30
2018-06-30T23:25:30.984Z,1.10
2018-06-30T23:28:00.157Z,1.10
2018-06-30T23:30:29.533Z,1.13
2018-06-30T23:32:58.113Z,1.30
2018-06-30T23:35:27.725Z,1.17
2018-06-30T23:37:57.118Z,1.00
2018-06-30T23:40:25.626Z,1.23
2018-06-30T23:42:54.082Z,1.10
2018-06-30T23:45:22.896Z,1.23
2018-06-30T23:47:52.005Z,1.20
2018-06-30T23:50:20.888Z,1.37
2018-06-30T23:52:49.264Z,1.13
2018-06-30T23:55:17.865Z,1.17
2018-06-30T23:57:46.456Z,1.27
